Time;durP1;ratioP1;P1;durP2;ratioP2;P2;SDS_P1;SDS_P2;PMS_P1;PMS_P2;Temp;Humidity;BMP_temperature;BMP_pressure;BME280_temperature;BME280_humidity;BME280_pressure;Samples;Min_cycle;Max_cycle;Signal;HPM_P1;HPM_P2
2022/07/23 00:01:07;;;;;;;9.70;5.28;;;;;;;21.64;nan;-24418.41;4975767;28;20182;-62
2022/07/23 00:03:38;;;;;;;7.82;5.30;;;;;;;21.76;nan;-24421.75;4973681;28;20772;-68
2022/07/23 00:06:05;;;;;;;8.40;4.35;;;;;;;21.76;nan;-24421.59;4976239;28;20204;-63
2022/07/23 00:08:31;;;;;;;8.20;5.32;;;;;;;21.45;nan;-24413.16;4978488;28;20177;-63
2022/07/23 00:10:57;;;;;;;8.30;5.38;;;;;;;21.34;nan;-24410.09;4976090;28;20213;-65
2022/07/23 00:13:24;;;;;;;7.60;4.70;;;;;;;21.36;nan;-24410.66;4974373;28;20204;-62
2022/07/23 00:15:51;;;;;;;9.40;5.50;;;;;;;21.54;nan;-24415.66;4975589;28;20661;-65
2022/07/23 00:18:20;;;;;;;7.45;4.72;;;;;;;21.32;nan;-24409.53;4976420;28;20370;-61
2022/07/23 00:20:48;;;;;;;7.13;4.63;;;;;;;20.99;nan;-24400.53;4976159;28;20258;-62
2022/07/23 00:23:14;;;;;;;8.20;5.35;;;;;;;21.34;nan;-24410.25;4977308;28;20189;-63
2022/07/23 00:25:45;;;;;;;11.38;5.18;;;;;;;21.29;nan;-24408.84;4978465;28;20232;-63
2022/07/23 00:28:11;;;;;;;7.75;4.90;;;;;;;21.18;nan;-24405.66;4970795;28;20200;-68
2022/07/23 00:30:41;;;;;;;6.38;4.50;;;;;;;21.27;nan;-24408.28;4972347;28;20213;-63
2022/07/23 00:33:08;;;;;;;7.50;4.93;;;;;;;21.30;nan;-24409.13;4973201;28;20189;-62
2022/07/23 00:35:40;;;;;;;9.90;5.03;;;;;;;21.10;nan;-24403.56;4977523;28;20236;-64
2022/07/23 00:38:11;;;;;;;10.43;4.85;;;;;;;21.01;nan;-24401.22;4973433;28;20596;-61
2022/07/23 00:40:38;;;;;;;9.93;5.78;;;;;;;19.94;nan;-24371.66;4978191;28;20216;-61
2022/07/23 00:43:05;;;;;;;13.52;5.93;;;;;;;21.31;nan;-24409.28;4976963;28;20238;-62
2022/07/23 00:45:32;;;;;;;9.65;5.72;;;;;;;21.27;nan;-24408.28;4975234;28;20193;-63
2022/07/23 00:47:58;;;;;;;8.73;5.00;;;;;;;20.90;nan;-24398.16;4974664;28;20612;-62
2022/07/23 00:50:24;;;;;;;8.38;5.05;;;;;;;20.99;nan;-24400.66;4975135;28;20201;-61
2022/07/23 00:52:51;;;;;;;11.75;6.65;;;;;;;21.05;nan;-24402.34;4972861;28;20676;-61
2022/07/23 00:55:17;;;;;;;7.97;5.05;;;;;;;20.99;nan;-24400.66;4973952;28;20181;-62
2022/07/23 00:57:44;;;;;;;8.27;5.03;;;;;;;20.94;nan;-24399.16;4986969;28;20256;-64
2022/07/23 01:00:13;;;;;;;8.63;4.95;;;;;;;20.89;nan;-24397.75;4977765;28;20185;-62
2022/07/23 01:02:40;;;;;;;7.75;4.53;;;;;;;20.95;nan;-24399.41;4976372;28;20212;-64
2022/07/23 01:05:08;;;;;;;9.05;4.80;;;;;;;20.98;nan;-24400.38;4973771;28;20268;-61
2022/07/23 01:07:34;;;;;;;8.43;4.70;;;;;;;20.94;nan;-24399.28;4977570;28;20177;-62
2022/07/23 01:10:00;;;;;;;9.32;4.90;;;;;;;20.87;nan;-24397.34;4978511;28;20652;-60
2022/07/23 01:12:26;;;;;;;7.30;4.60;;;;;;;20.73;nan;-24393.59;4979050;28;20242;-61
2022/07/23 01:14:58;;;;;;;10.50;5.13;;;;;;;20.61;nan;-24390.13;4975765;28;20602;-60
2022/07/23 01:17:24;;;;;;;7.07;4.50;;;;;;;20.66;nan;-24391.50;4979404;28;20190;-61
2022/07/23 01:19:50;;;;;;;8.38;4.55;;;;;;;20.59;nan;-24389.56;4977780;28;20205;-60
2022/07/23 01:22:18;;;;;;;8.38;5.00;;;;;;;20.68;nan;-24392.19;4978212;28;20255;-60
2022/07/23 01:24:43;;;;;;;10.43;5.53;;;;;;;20.65;nan;-24391.38;4975501;28;20259;-61
2022/07/23 01:27:09;;;;;;;9.02;5.10;;;;;;;18.79;nan;-24340.06;4977249;28;20181;-60
2022/07/23 01:29:34;;;;;;;9.32;5.05;;;;;;;20.36;nan;-24383.31;4975109;28;20684;-60
2022/07/23 01:32:00;;;;;;;7.22;4.18;;;;;;;20.64;nan;-24391.09;4977484;28;20213;-61
2022/07/23 01:34:25;;;;;;;11.13;6.07;;;;;;;20.71;nan;-24393.03;4978731;28;20641;-60
2022/07/23 01:36:51;;;;;;;11.85;6.57;;;;;;;20.95;nan;-24399.41;4973866;28;20182;-61
2022/07/23 01:39:16;;;;;;;14.98;7.15;;;;;;;20.58;nan;-24389.28;4974152;28;20231;-61
2022/07/23 01:41:42;;;;;;;14.25;7.47;;;;;;;21.07;nan;-24402.88;4979900;28;20184;-62
2022/07/23 01:44:07;;;;;;;19.02;8.10;;;;;;;20.70;nan;-24392.75;4978830;28;20271;-61
2022/07/23 01:46:33;;;;;;;12.55;7.65;;;;;;;20.89;nan;-24397.91;4978004;28;20240;-62
2022/07/23 01:48:58;;;;;;;14.70;7.63;;;;;;;20.78;nan;-24394.84;4976138;28;20189;-61
2022/07/23 01:51:24;;;;;;;12.57;7.18;;;;;;;20.40;nan;-24384.44;4979014;28;20196;-61
2022/07/23 01:53:49;;;;;;;13.27;7.53;;;;;;;14.51;nan;-24221.84;4977004;28;20182;-62
2022/07/23 01:56:15;;;;;;;16.50;8.52;;;;;;;20.48;nan;-24386.53;4979832;28;20243;-61
2022/07/23 01:58:40;;;;;;;14.77;8.10;;;;;;;20.25;nan;-24380.41;4977120;28;20185;-61
2022/07/23 02:01:06;;;;;;;14.15;7.40;;;;;;;18.59;nan;-24334.63;4975168;28;20614;-61
2022/07/23 02:03:31;;;;;;;13.27;7.88;;;;;;;20.51;nan;-24387.34;4977483;28;20259;-61
2022/07/23 02:05:57;;;;;;;11.98;7.32;;;;;;;20.17;nan;-24378.19;4976952;28;20202;-61
2022/07/23 02:08:22;;;;;;;14.82;8.00;;;;;;;20.44;nan;-24385.41;4980209;28;20173;-61
2022/07/23 02:10:48;;;;;;;14.02;7.97;;;;;;;20.24;nan;-24380.13;4981693;28;20291;-61
2022/07/23 02:13:14;;;;;;;16.73;7.57;;;;;;;20.45;nan;-24385.69;4977535;28;20174;-62
2022/07/23 02:15:40;;;;;;;15.95;8.23;;;;;;;20.58;nan;-24389.44;4976915;28;20170;-61
2022/07/23 02:18:05;;;;;;;12.35;7.47;;;;;;;20.44;nan;-24385.53;4978194;28;20189;-61
2022/07/23 02:20:31;;;;;;;13.80;7.45;;;;;;;20.40;nan;-24384.28;4977755;28;20264;-61
2022/07/23 02:22:56;;;;;;;16.33;8.52;;;;;;;20.27;nan;-24380.81;4976688;28;20497;-61
2022/07/23 02:25:22;;;;;;;15.68;7.55;;;;;;;20.10;nan;-24376.09;4979222;28;20208;-61
2022/07/23 02:27:47;;;;;;;13.20;7.93;;;;;;;19.80;nan;-24367.91;4976926;28;20189;-61
2022/07/23 02:30:13;;;;;;;16.80;7.72;;;;;;;19.94;nan;-24371.78;4978718;28;20699;-61
2022/07/23 02:32:39;;;;;;;17.13;7.95;;;;;;;20.02;nan;-24373.88;4974267;28;20612;-60
2022/07/23 02:35:06;;;;;;;14.75;8.15;;;;;;;19.77;nan;-24367.06;4977971;28;20224;-60
2022/07/23 02:37:32;;;;;;;12.27;7.22;;;;;;;19.92;nan;-24371.22;4980656;28;20648;-60
2022/07/23 02:39:57;;;;;;;14.75;8.25;;;;;;;19.87;nan;-24369.72;4980581;28;20240;-61
2022/07/23 02:42:23;;;;;;;15.80;8.77;;;;;;;19.94;nan;-24371.78;4982112;28;20710;-61
2022/07/23 02:44:50;;;;;;;15.48;7.82;;;;;;;19.78;nan;-24367.34;4980245;28;20189;-61
2022/07/23 02:47:16;;;;;;;12.45;7.65;;;;;;;19.86;nan;-24369.56;4982296;28;20192;-61
2022/07/23 02:49:41;;;;;;;15.65;7.68;;;;;;;20.05;nan;-24374.72;4978810;28;20553;-62
2022/07/23 02:52:07;;;;;;;12.13;7.53;;;;;;;19.90;nan;-24370.69;4981963;28;20212;-60
2022/07/23 02:54:33;;;;;;;16.27;7.68;;;;;;;19.67;nan;-24364.28;4978957;28;20178;-62
2022/07/23 02:56:58;;;;;;;16.27;8.05;;;;;;;19.97;nan;-24372.63;4977067;28;20200;-61
2022/07/23 02:59:24;;;;;;;12.73;7.63;;;;;;;19.93;nan;-24371.50;4978911;28;20647;-60
2022/07/23 03:01:49;;;;;;;17.20;8.20;;;;;;;19.67;nan;-24364.28;4975528;28;20558;-61
2022/07/23 03:04:15;;;;;;;22.88;9.23;;;;;;;19.63;nan;-24363.16;4975987;28;20555;-61
2022/07/23 03:06:40;;;;;;;13.65;7.57;;;;;;;19.71;nan;-24365.41;4977134;28;20637;-61
2022/07/23 03:09:05;;;;;;;12.20;7.00;;;;;;;19.85;nan;-24369.28;4976636;28;20184;-61
2022/07/23 03:11:31;;;;;;;15.38;7.55;;;;;;;20.21;nan;-24379.28;4977786;28;20677;-61
2022/07/23 03:13:57;;;;;;;14.07;6.88;;;;;;;20.05;nan;-24374.84;4976983;28;20224;-61
2022/07/23 03:16:22;;;;;;;15.30;7.30;;;;;;;20.42;nan;-24385.00;4976812;28;20851;-61
2022/07/23 03:18:47;;;;;;;15.38;7.65;;;;;;;20.34;nan;-24382.63;4977308;28;20697;-62
2022/07/23 03:21:13;;;;;;;12.32;7.00;;;;;;;20.59;nan;-24389.72;4975246;28;20185;-60
2022/07/23 03:23:39;;;;;;;16.10;7.40;;;;;;;17.14;nan;-24294.63;4975646;28;20191;-60
2022/07/23 03:26:04;;;;;;;16.15;7.18;;;;;;;18.46;nan;-24331.00;4978313;28;20177;-62
2022/07/23 03:28:30;;;;;;;14.65;6.85;;;;;;;21.17;nan;-24405.38;4975477;28;20736;-61
2022/07/23 03:30:56;;;;;;;13.65;7.28;;;;;;;21.72;nan;-24420.63;4977615;28;20231;-61
2022/07/23 03:33:21;;;;;;;10.00;6.35;;;;;;;22.15;nan;-24432.41;4976062;28;20661;-60
2022/07/23 03:35:48;;;;;;;15.27;6.80;;;;;;;22.43;nan;-24440.00;4978800;28;20177;-61
2022/07/23 03:38:14;;;;;;;14.00;6.75;;;;;;;22.87;nan;-24452.03;4974967;28;20242;-60
2022/07/23 03:40:39;;;;;;;11.32;6.18;;;;;;;23.58;nan;-24471.53;4978591;28;20224;-61
2022/07/23 03:43:05;;;;;;;12.60;7.65;;;;;;;24.12;nan;-24486.28;4976189;28;20244;-61
2022/07/23 03:45:31;;;;;;;10.07;6.25;;;;;;;24.59;nan;-24498.97;4977619;28;20209;-62
2022/07/23 03:47:56;;;;;;;12.25;6.75;;;;;;;25.34;nan;-24519.50;4976088;28;20259;-60
2022/07/23 03:50:22;;;;;;;10.90;6.20;;;;;;;25.87;nan;-24533.94;4978147;28;20303;-60
2022/07/23 03:52:48;;;;;;;12.50;6.90;;;;;;;26.29;nan;-24545.34;4976852;28;20188;-60
2022/07/23 03:55:13;;;;;;;13.75;7.13;;;;;;;26.72;nan;-24556.88;4976689;28;20667;-62
2022/07/23 03:57:39;;;;;;;12.88;7.10;;;;;;;27.29;nan;-24572.25;4977023;28;20177;-62
2022/07/23 04:00:08;;;;;;;10.02;6.18;;;;;;;27.71;nan;-24583.63;4980532;28;20197;-61
2022/07/23 04:02:34;;;;;;;10.75;6.40;;;;;;;28.23;nan;-24597.72;4976258;28;20176;-61
2022/07/23 04:05:00;;;;;;;12.73;6.57;;;;;;;28.48;nan;-24604.69;4981454;28;20637;-63
2022/07/23 04:07:26;;;;;;;10.82;6.18;;;;;;;28.72;nan;-24611.13;4978447;28;20184;-62
2022/07/23 04:09:51;;;;;;;10.38;6.20;;;;;;;29.21;nan;-24624.38;4973226;28;20292;-62
2022/07/23 04:12:17;;;;;;;9.68;6.60;;;;;;;29.80;nan;-24640.22;4983945;28;20556;-62
2022/07/23 04:14:43;;;;;;;10.38;6.13;;;;;;;30.38;nan;-24655.78;4981198;28;20259;-62
2022/07/23 04:17:08;;;;;;;11.73;6.57;;;;;;;30.82;nan;-24667.63;4980363;28;20203;-62
2022/07/23 04:19:39;;;;;;;11.13;6.20;;;;;;;30.99;nan;-24672.25;4980502;28;20230;-62
2022/07/23 04:22:05;;;;;;;10.15;6.22;;;;;;;31.24;nan;-24678.91;4976345;28;20196;-63
2022/07/23 04:24:31;;;;;;;11.13;6.63;;;;;;;31.32;nan;-24681.22;4981703;28;20183;-61
2022/07/23 04:26:56;;;;;;;12.88;6.20;;;;;;;31.71;nan;-24691.56;4977902;28;20586;-62
2022/07/23 04:29:22;;;;;;;10.73;6.70;;;;;;;32.01;nan;-24699.84;4977855;28;20238;-62
2022/07/23 04:31:47;;;;;;;9.40;6.30;;;;;;;31.98;nan;-24698.91;4978622;28;20672;-62
2022/07/23 04:34:12;;;;;;;9.93;6.55;;;;;;;32.00;nan;-24699.56;4980595;28;20633;-62
2022/07/23 04:36:38;;;;;;;12.23;6.47;;;;;;;32.01;nan;-24699.72;4978446;28;20614;-61
2022/07/23 04:39:03;;;;;;;9.45;6.80;;;;;;;;;;4976635;28;20588;-61
2022/07/23 04:41:28;;;;;;;13.10;7.03;;;;;;;;;;4976903;28;20625;-63
2022/07/23 04:43:54;;;;;;;10.80;6.57;;;;;;;31.76;nan;-24693.06;4979117;28;20188;-62
2022/07/23 04:46:19;;;;;;;10.90;5.80;;;;;;;32.03;nan;-24700.25;4980273;28;20601;-61
2022/07/23 04:48:45;;;;;;;11.07;6.38;;;;;;;32.01;nan;-24699.84;4977688;28;20532;-64
2022/07/23 04:51:10;;;;;;;14.98;7.00;;;;;;;31.89;nan;-24696.47;4979824;28;20340;-61
2022/07/23 04:53:38;;;;;;;11.35;6.45;;;;;;;31.52;nan;-24686.66;4978814;28;20185;-63
2022/07/23 04:56:04;;;;;;;11.10;6.78;;;;;;;31.43;nan;-24684.09;4979159;28;20649;-63
2022/07/23 04:58:29;;;;;;;11.27;6.40;;;;;;;31.51;nan;-24686.25;4978926;28;20187;-63
2022/07/23 05:00:57;;;;;;;15.32;7.38;;;;;;;30.65;nan;-24663.25;4976133;28;20641;-64
2022/07/23 05:03:23;;;;;;;13.88;6.93;;;;;;;;;;4976067;28;20260;-62
2022/07/23 05:05:48;;;;;;;17.40;8.20;;;;;;;;;;4979813;28;20264;-60
2022/07/23 05:08:13;;;;;;;11.90;7.22;;;;;;;30.83;nan;-24668.03;4980808;28;20633;-62
2022/07/23 05:10:39;;;;;;;12.98;7.18;;;;;;;30.60;nan;-24661.75;4972832;28;20240;-63
2022/07/23 05:13:04;;;;;;;13.05;7.47;;;;;;;30.60;nan;-24661.75;4980669;28;20279;-61
2022/07/23 05:15:30;;;;;;;14.07;8.02;;;;;;;30.92;nan;-24670.47;4978364;28;20272;-61
2022/07/23 05:17:55;;;;;;;14.13;7.13;;;;;;;31.32;nan;-24681.09;4977115;28;20185;-61
2022/07/23 05:20:21;;;;;;;12.40;7.15;;;;;;;31.31;nan;-24680.81;5006152;28;20235;-62
2022/07/23 05:22:46;;;;;;;18.52;7.82;;;;;;;31.31;nan;-24680.81;4979278;28;20180;-62
2022/07/23 05:25:12;;;;;;;13.90;7.10;;;;;;;31.03;nan;-24673.34;4979517;28;20180;-63
2022/07/23 05:27:37;;;;;;;16.45;8.13;;;;;;;31.13;nan;-24676.19;4977416;28;20184;-61
2022/07/23 05:30:03;;;;;;;12.25;6.80;;;;;;;31.13;nan;-24676.19;4976146;28;20191;-64
2022/07/23 05:32:32;;;;;;;19.02;7.35;;;;;;;31.31;nan;-24680.97;4976756;28;20242;-63
2022/07/23 05:34:57;;;;;;;12.95;7.47;;;;;;;31.31;nan;-24680.97;4972502;28;20188;-63
2022/07/23 05:37:23;;;;;;;13.80;7.38;;;;;;;30.76;nan;-24666.13;4975065;28;20234;-61
2022/07/23 05:39:49;;;;;;;15.30;7.63;;;;;;;29.71;nan;-24637.91;4975471;28;20231;-64
2022/07/23 05:42:15;;;;;;;13.38;7.53;;;;;;;29.77;nan;-24639.53;4971110;28;20188;-63
2022/07/23 05:44:40;;;;;;;13.07;7.90;;;;;;;29.77;nan;-24639.53;4968259;28;20656;-66
2022/07/23 05:47:06;;;;;;;13.15;7.70;;;;;;;29.59;nan;-24634.63;4973270;28;20192;-64
2022/07/23 05:49:31;;;;;;;11.68;6.90;;;;;;;29.06;nan;-24620.28;4976295;28;20231;-66
2022/07/23 05:51:57;;;;;;;13.68;7.03;;;;;;;29.23;nan;-24624.78;4974012;28;20236;-62
2022/07/23 05:54:22;;;;;;;11.57;6.85;;;;;;;29.23;nan;-24624.78;4976800;28;20514;-61
2022/07/23 05:56:48;;;;;;;12.77;7.15;;;;;;;28.74;nan;-24611.69;4974181;28;20196;-62
2022/07/23 05:59:14;;;;;;;15.50;7.13;;;;;;;28.83;nan;-24614.00;4975440;28;20204;-64
2022/07/23 06:01:40;;;;;;;14.68;7.68;;;;;;;28.83;nan;-24614.00;5004375;28;20612;-61
2022/07/23 06:04:05;;;;;;;11.00;6.70;;;;;;;28.86;nan;-24614.97;4972742;28;20190;-64
2022/07/23 06:06:31;;;;;;;10.50;6.55;;;;;;;28.60;nan;-24607.72;4976699;28;20178;-63
2022/07/23 06:08:57;;;;;;;12.13;6.25;;;;;;;28.60;nan;-24612.22;4974005;28;20560;-62
2022/07/23 06:11:22;;;;;;;9.93;5.60;;;;;;;;;;4974304;28;20707;-62
2022/07/23 06:13:48;;;;;;;11.48;6.05;;;;;;;28.47;nan;-24604.28;4978801;28;20277;-61
2022/07/23 06:16:13;;;;;;;9.00;5.70;;;;;;;28.47;nan;-24604.28;4979471;28;20177;-62
2022/07/23 06:18:38;;;;;;;8.35;5.53;;;;;;;28.68;nan;-24610.03;4979190;28;20640;-61
2022/07/23 06:21:04;;;;;;;7.50;5.15;;;;;;;28.87;nan;-24615.22;4977372;28;20196;-61
2022/07/23 06:23:29;;;;;;;11.57;5.72;;;;;;;28.72;nan;-24611.00;4979064;28;20189;-62
2022/07/23 06:25:55;;;;;;;8.25;5.28;;;;;;;28.92;nan;-24616.59;4977825;28;20188;-63
2022/07/23 06:28:20;;;;;;;11.80;5.15;;;;;;;29.02;nan;-24619.06;4979374;28;20183;-63
2022/07/23 06:30:46;;;;;;;9.75;4.43;;;;;;;29.02;nan;-24619.06;4977000;28;20197;-62
2022/07/23 06:33:12;;;;;;;6.45;4.75;;;;;;;29.17;nan;-24623.16;4976515;28;20281;-64
2022/07/23 06:35:37;;;;;;;7.20;4.60;;;;;;;29.52;nan;-24632.72;4978683;28;20173;-63
2022/07/23 06:38:03;;;;;;;6.85;4.70;;;;;;;29.45;nan;-24630.81;4979156;28;20177;-62
2022/07/23 06:40:28;;;;;;;6.88;4.28;;;;;;;29.94;nan;-24643.91;4978181;28;20616;-62
2022/07/23 06:42:54;;;;;;;5.97;4.15;;;;;;;30.16;nan;-24649.91;4981310;28;20666;-63
2022/07/23 06:45:21;;;;;;;9.32;4.90;;;;;;;30.16;nan;-24649.91;4979245;28;20201;-61
2022/07/23 06:47:46;;;;;;;6.03;4.20;;;;;;;29.91;nan;-24643.09;4981405;28;20184;-63
2022/07/23 06:50:12;;;;;;;5.90;4.60;;;;;;;29.91;nan;-24643.09;4982414;28;20561;-62
2022/07/23 06:52:37;;;;;;;7.93;5.20;;;;;;;30.07;nan;-24647.44;4980096;28;20276;-62
2022/07/23 06:55:03;;;;;;;7.45;4.35;;;;;;;30.36;nan;-24655.34;4981200;28;20561;-63
2022/07/23 06:57:28;;;;;;;8.02;4.35;;;;;;;30.32;nan;-24654.28;4981113;28;20225;-63
2022/07/23 06:59:54;;;;;;;6.28;4.30;;;;;;;30.17;nan;-24650.19;4979597;28;20611;-62
2022/07/23 07:02:19;;;;;;;7.63;4.63;;;;;;;30.48;nan;-24658.63;4975850;28;20633;-62
2022/07/23 07:04:45;;;;;;;8.93;4.50;;;;;;;30.56;nan;-24660.81;4975885;28;20332;-63
2022/07/23 07:07:11;;;;;;;8.05;4.88;;;;;;;30.89;nan;-24669.53;4982583;28;20244;-64
2022/07/23 07:09:37;;;;;;;9.27;4.60;;;;;;;30.89;nan;-24669.53;4979395;28;20180;-60
2022/07/23 07:12:03;;;;;;;7.78;4.47;;;;;;;31.06;nan;-24674.16;4977265;28;20205;-62
2022/07/23 07:14:29;;;;;;;8.40;4.70;;;;;;;31.22;nan;-24678.38;4976655;28;20217;-61
2022/07/23 07:16:54;;;;;;;8.10;4.60;;;;;;;31.21;nan;-24678.09;4982020;28;20673;-62
2022/07/23 07:19:20;;;;;;;8.45;4.35;;;;;;;31.06;nan;-24674.28;4980928;28;20691;-60
2022/07/23 07:21:45;;;;;;;7.03;4.35;;;;;;;31.31;nan;-24680.97;4979475;28;20276;-61
2022/07/23 07:24:11;;;;;;;9.23;4.50;;;;;;;31.31;nan;-24680.97;4982307;28;20674;-62
2022/07/23 07:26:38;;;;;;;5.85;4.20;;;;;;;31.13;nan;-24676.06;4979086;28;20191;-63
2022/07/23 07:29:04;;;;;;;6.80;4.55;;;;;;;31.13;nan;-24676.06;5010988;28;20235;-64
2022/07/23 07:31:29;;;;;;;7.70;4.30;;;;;;;31.52;nan;-24686.53;4979068;28;20216;-62
2022/07/23 07:33:56;;;;;;;9.90;4.60;;;;;;;31.53;nan;-24686.81;4981257;28;20222;-63
2022/07/23 07:36:23;;;;;;;6.43;4.00;;;;;;;31.74;nan;-24692.38;4971037;28;20247;-61
2022/07/23 07:38:48;;;;;;;6.55;3.65;;;;;;;31.89;nan;-24696.59;4980346;28;20228;-63
2022/07/23 07:41:14;;;;;;;7.65;4.10;;;;;;;32.03;nan;-24700.13;4981130;28;20189;-62
2022/07/23 07:43:40;;;;;;;8.95;4.75;;;;;;;31.63;nan;-24689.41;4978815;28;20180;-62
2022/07/23 07:46:09;;;;;;;6.10;3.78;;;;;;;31.89;nan;-24696.47;4980290;28;20188;-61
2022/07/23 07:48:36;;;;;;;5.90;3.80;;;;;;;31.89;nan;-24696.47;4979557;28;20189;-63
2022/07/23 07:51:02;;;;;;;9.18;3.78;;;;;;;31.90;nan;-24696.88;4978808;28;20240;-61
2022/07/23 07:53:27;;;;;;;9.40;4.40;;;;;;;32.12;nan;-24702.72;4979167;28;20234;-62
2022/07/23 07:55:53;;;;;;;5.68;4.10;;;;;;;32.30;nan;-24707.47;4977715;28;20176;-61
2022/07/23 07:58:18;;;;;;;8.35;4.30;;;;;;;32.14;nan;-24703.25;4976966;28;20219;-62
2022/07/23 08:00:44;;;;;;;5.35;3.85;;;;;;;32.17;nan;-24704.06;4980701;28;20173;-60
2022/07/23 08:03:09;;;;;;;6.93;4.10;;;;;;;32.17;nan;-24704.06;4980670;28;20652;-62
2022/07/23 08:05:35;;;;;;;5.57;3.60;;;;;;;32.80;nan;-24720.88;4976858;28;20180;-61
2022/07/23 08:08:00;;;;;;;6.60;4.38;;;;;;;32.80;nan;-24720.88;4976892;28;20176;-63
2022/07/23 08:10:27;;;;;;;4.55;3.58;;;;;;;32.88;nan;-24723.19;4980058;28;20204;-62
2022/07/23 08:12:58;;;;;;;5.35;3.78;;;;;;;33.54;nan;-24740.81;4978894;28;20661;-65
2022/07/23 08:15:27;;;;;;;6.03;3.80;;;;;;;33.84;nan;-24748.78;4980573;28;20188;-63
2022/07/23 08:17:53;;;;;;;5.25;3.53;;;;;;;34.07;nan;-24755.00;4978401;28;20189;-63
2022/07/23 08:20:21;;;;;;;6.65;4.03;;;;;;;34.07;nan;-24755.00;4980253;28;20192;-64
2022/07/23 08:22:51;;;;;;;7.90;3.95;;;;;;;28.98;nan;-24618.09;4978473;28;20188;-63
2022/07/23 08:25:23;;;;;;;5.22;3.53;;;;;;;34.10;nan;-24755.81;4979883;28;20266;-63
2022/07/23 08:27:49;;;;;;;5.50;3.70;;;;;;;33.91;nan;-24750.69;4976310;28;20398;-63
2022/07/23 08:30:16;;;;;;;6.00;3.55;;;;;;;30.11;nan;-24648.69;4979380;28;20181;-62
2022/07/23 08:32:56;;;;;;;6.93;3.60;;;;;;;33.38;nan;-24736.34;4977767;28;20185;-65
2022/07/23 08:35:33;;;;;;;5.10;3.35;;;;;;;33.72;nan;-24745.53;4979582;28;20168;-63
2022/07/23 08:38:01;;;;;;;4.38;3.40;;;;;;;33.95;nan;-24751.78;4973292;28;20299;-61
2022/07/23 08:40:29;;;;;;;4.45;3.20;;;;;;;34.37;nan;-24762.84;4975762;28;20644;-60
2022/07/23 08:42:54;;;;;;;5.40;3.60;;;;;;;34.56;nan;-24768.00;4978110;28;20181;-63
2022/07/23 08:45:22;;;;;;;5.63;3.42;;;;;;;34.67;nan;-24770.97;4977794;28;20675;-62
2022/07/23 08:47:52;;;;;;;7.70;3.97;;;;;;;34.38;nan;-24763.25;4975766;28;20174;-62
2022/07/23 08:50:19;;;;;;;4.40;3.40;;;;;;;34.50;nan;-24766.50;4979972;28;20182;-63
2022/07/23 08:52:45;;;;;;;6.70;3.53;;;;;;;34.48;nan;-24765.97;4977745;28;20187;-65
2022/07/23 08:55:10;;;;;;;5.68;3.45;;;;;;;34.08;nan;-24755.28;4982087;28;20172;-66
2022/07/23 08:57:36;;;;;;;5.32;3.53;;;;;;;33.81;nan;-24747.97;4977437;28;20541;-67
2022/07/23 09:00:04;;;;;;;5.43;3.83;;;;;;;34.43;nan;-24764.63;4970970;28;20257;-60
2022/07/23 09:02:29;;;;;;;5.97;3.95;;;;;;;34.37;nan;-24762.84;4980001;28;20267;-61
2022/07/23 09:04:55;;;;;;;6.80;3.58;;;;;;;34.79;nan;-24774.22;4978652;28;20272;-64
2022/07/23 09:07:20;;;;;;;5.10;3.75;;;;;;;35.05;nan;-24781.09;4971534;28;20537;-60
2022/07/23 09:09:45;;;;;;;6.38;3.83;;;;;;;34.64;nan;-24770.03;4973842;28;20680;-63
2022/07/23 09:12:11;;;;;;;6.93;3.90;;;;;;;34.84;nan;-24775.56;4973123;28;20302;-62
2022/07/23 09:14:39;;;;;;;5.22;3.85;;;;;;;35.25;nan;-24786.34;4972684;28;20177;-65
2022/07/23 09:17:16;;;;;;;5.25;3.83;;;;;;;35.31;nan;-24788.13;4977691;28;20184;-62
2022/07/23 09:19:43;;;;;;;8.40;4.05;;;;;;;35.07;nan;-24781.50;4977200;28;20171;-65
2022/07/23 09:22:20;;;;;;;5.18;3.50;;;;;;;35.35;nan;-24789.19;4972722;28;20203;-64
2022/07/23 09:25:06;;;;;;;5.28;3.60;;;;;;;35.11;nan;-24782.56;4979464;28;20198;-66
2022/07/23 09:27:49;;;;;;;5.35;3.53;;;;;;;35.28;nan;-24787.16;4981594;28;20184;-64
2022/07/23 09:30:14;;;;;;;5.25;3.58;;;;;;;35.16;nan;-24784.06;4979673;28;20263;-64
2022/07/23 09:32:41;;;;;;;5.22;3.72;;;;;;;35.15;nan;-24783.78;4972423;28;20288;-62
2022/07/23 09:35:07;;;;;;;5.65;4.00;;;;;;;35.32;nan;-24788.25;4973944;28;20313;-64
2022/07/23 09:37:32;;;;;;;4.78;3.38;;;;;;;35.59;nan;-24795.53;4987737;28;20180;-61
2022/07/23 09:40:08;;;;;;;6.13;3.83;;;;;;;;;;4986491;28;20271;-63
2022/07/23 09:42:34;;;;;;;4.28;3.10;;;;;;;;;;4972691;28;20231;-63
2022/07/23 09:45:00;;;;;;;6.93;3.60;;;;;;;35.74;nan;-24799.56;4975417;28;20189;-66
2022/07/23 09:47:31;;;;;;;5.50;3.53;;;;;;;35.78;nan;-24800.66;4974823;28;20271;-63
2022/07/23 09:50:09;;;;;;;6.28;3.97;;;;;;;35.75;nan;-24799.69;4974488;28;20211;-60
2022/07/23 09:52:47;;;;;;;8.27;3.42;;;;;;;34.96;nan;-24778.78;4975622;28;20194;-63
2022/07/23 09:55:14;;;;;;;5.25;3.42;;;;;;;35.60;nan;-24795.78;4974688;28;20181;-63
2022/07/23 09:57:45;;;;;;;4.97;3.58;;;;;;;;;;4976212;28;20188;-63
2022/07/23 10:00:12;;;;;;;5.05;3.40;;;;;;;36.12;nan;-24809.53;4976042;28;20716;-62
2022/07/23 10:02:38;;;;;;;6.15;3.08;;;;;;;36.18;nan;-24811.16;4977775;28;20196;-62
2022/07/23 10:05:05;;;;;;;4.45;3.00;;;;;;;36.49;nan;-24819.50;4976327;28;20672;-65
2022/07/23 10:07:37;;;;;;;4.47;3.03;;;;;;;36.49;nan;-24819.38;4975454;28;20177;-63
2022/07/23 10:10:05;;;;;;;4.38;3.28;;;;;;;36.41;nan;-24817.22;4975776;28;20197;-62
2022/07/23 10:15:00;;;;;;;4.78;3.17;;;;;;;36.78;nan;-24827.16;4972627;28;20254;-62
2022/07/23 10:17:28;;;;;;;4.93;3.28;;;;;;;36.74;nan;-24826.09;4970569;28;20554;-65
2022/07/23 10:19:53;;;;;;;4.47;3.20;;;;;;;36.03;nan;-24807.13;4970536;28;20177;-63
2022/07/23 10:22:34;;;;;;;5.20;3.05;;;;;;;35.67;nan;-24797.69;4973926;28;20173;-63
2022/07/23 10:25:00;;;;;;;5.30;3.35;;;;;;;35.50;nan;-24792.97;4971036;28;20189;-67
2022/07/23 10:27:58;;;;;;;7.60;3.60;;;;;;;35.36;nan;-24789.47;4979901;28;20199;-62
2022/07/23 10:30:45;;;;;;;5.18;3.08;;;;;;;35.55;nan;-24794.44;4972268;28;20683;-64
2022/07/23 10:33:32;;;;;;;4.32;3.03;;;;;;;35.76;nan;-24800.09;4974748;28;20235;-61
2022/07/23 10:36:07;;;;;;;5.70;3.10;;;;;;;35.80;nan;-24801.19;4974006;28;20184;-63
2022/07/23 10:38:59;;;;;;;5.05;3.17;;;;;;;35.66;nan;-24797.41;4972847;28;20274;-62
2022/07/23 10:41:39;;;;;;;7.28;3.38;;;;;;;35.60;nan;-24795.78;4973059;28;20208;-58
2022/07/23 10:44:08;;;;;;;7.25;3.85;;;;;;;36.05;nan;-24807.78;4968897;28;20184;-66
2022/07/23 10:49:21;;;;;;;4.90;3.33;;;;;;;35.88;nan;-24803.22;4976248;28;20184;-64
2022/07/23 10:52:14;;;;;;;4.88;3.28;;;;;;;35.97;nan;-24805.50;4973818;28;20208;-62
2022/07/23 10:54:51;;;;;;;5.78;4.07;;;;;;;35.90;nan;-24803.75;4973792;28;20191;-61
2022/07/23 10:57:27;;;;;;;8.18;3.70;;;;;;;35.61;nan;-24796.06;4974606;28;20179;-61
2022/07/23 11:00:14;;;;;;;4.65;2.90;;;;;;;35.81;nan;-24801.31;4977531;28;20179;-63
2022/07/23 11:02:41;;;;;;;4.18;3.20;;;;;;;35.78;nan;-24800.50;4977667;28;20227;-63
2022/07/23 11:05:13;;;;;;;5.00;3.28;;;;;;;35.81;nan;-24801.47;4978762;28;20193;-61
2022/07/23 11:08:03;;;;;;;4.57;3.10;;;;;;;35.85;nan;-24802.41;4977773;28;20211;-63
2022/07/23 11:10:46;;;;;;;4.28;2.83;;;;;;;35.98;nan;-24805.91;4977510;28;22143;-64
2022/07/23 11:13:24;;;;;;;6.50;3.65;;;;;;;36.30;nan;-24814.38;4975101;28;20267;-65
2022/07/23 11:16:04;;;;;;;5.00;3.30;;;;;;;36.52;nan;-24820.31;4976424;28;20200;-64
2022/07/23 11:18:54;;;;;;;9.38;3.38;;;;;;;36.74;nan;-24826.22;4975524;28;20694;-64
2022/07/23 11:21:29;;;;;;;12.20;3.65;;;;;;;36.66;nan;-24823.94;4980329;28;20236;-63
2022/07/23 11:23:58;;;;;;;4.57;3.17;;;;;;;36.92;nan;-24830.78;4978329;28;20199;-62
2022/07/23 11:26:42;;;;;;;4.95;3.22;;;;;;;36.97;nan;-24832.28;4976854;28;20650;-62
2022/07/23 11:29:31;;;;;;;3.88;3.03;;;;;;;37.24;nan;-24839.25;4978066;28;20636;-61
2022/07/23 11:32:05;;;;;;;6.07;3.45;;;;;;;37.26;nan;-24839.81;4979414;28;20223;-63
2022/07/23 11:34:42;;;;;;;4.38;2.88;;;;;;;36.95;nan;-24831.59;4977902;28;20179;-62
2022/07/23 11:37:25;;;;;;;5.15;3.33;;;;;;;36.65;nan;-24823.81;4977028;28;20267;-60
2022/07/23 11:39:54;;;;;;;7.20;3.28;;;;;;;31.91;nan;-24697.13;4978037;28;20216;-62
2022/07/23 11:42:20;;;;;;;8.13;3.35;;;;;;;36.90;nan;-24830.41;4976884;28;20308;-61
2022/07/23 11:44:47;;;;;;;5.47;3.10;;;;;;;36.85;nan;-24828.91;4977137;28;20278;-58
2022/07/23 11:47:13;;;;;;;6.50;3.55;;;;;;;37.05;nan;-24834.28;4976772;28;20188;-61
2022/07/23 11:49:38;;;;;;;4.28;3.17;;;;;;;37.35;nan;-24842.22;4978911;28;20180;-62